Time;durP1;ratioP1;P1;durP2;ratioP2;P2;SDS_P1;SDS_P2;PMS_P1;PMS_P2;Temp;Humidity;BMP_temperature;BMP_pressure;BME280_temperature;BME280_humidity;BME280_pressure;Samples;Min_cycle;Max_cycle;Signal;HPM_P1;HPM_P2
2023/11/10 00:00:14;;;;;;;0.05;0.00;;;2.80;99.90;;;;;;25596254;23;20012;-59
2023/11/10 00:10:17;;;;;;;0.00;0.00;;;2.70;99.90;;;;;;25595526;23;20070;-59
2023/11/10 00:20:19;;;;;;;0.00;0.00;;;2.70;99.90;;;;;;25595363;23;20306;-59
2023/11/10 00:30:21;;;;;;;1.30;0.00;;;2.80;99.90;;;;;;25593966;23;20013;-52
2023/11/10 00:40:22;;;;;;;0.00;0.00;;;2.90;99.90;;;;;;25594485;23;20001;-58
2023/11/10 00:50:24;;;;;;;0.00;0.00;;;3.00;99.90;;;;;;25592404;23;20009;-59
2023/11/10 01:00:26;;;;;;;0.47;0.00;;;3.00;99.90;;;;;;25592931;23;20010;-58
2023/11/10 01:10:28;;;;;;;0.00;0.00;;;3.10;99.90;;;;;;25594315;23;20389;-58
2023/11/10 01:20:31;;;;;;;0.00;0.00;;;3.20;99.90;;;;;;25592731;23;20001;-48
2023/11/10 01:30:34;;;;;;;0.00;0.00;;;3.20;99.90;;;;;;25593308;23;20087;-54
2023/11/10 01:40:39;;;;;;;0.00;0.00;;;3.20;99.90;;;;;;25593444;23;20013;-57
2023/11/10 01:50:42;;;;;;;0.10;0.00;;;3.30;99.90;;;;;;25593085;23;20038;-58
2023/11/10 02:00:44;;;;;;;0.00;0.00;;;3.30;99.90;;;;;;25595340;23;20433;-59
2023/11/10 02:10:46;;;;;;;1.27;0.00;;;3.50;99.90;;;;;;25600338;23;20013;-58
2023/11/10 02:20:48;;;;;;;0.45;0.03;;;3.50;99.90;;;;;;25597199;23;20020;-59
2023/11/10 02:30:51;;;;;;;0.00;0.00;;;3.60;99.90;;;;;;25599213;23;20005;-52
2023/11/10 02:40:53;;;;;;;0.00;0.00;;;3.60;99.90;;;;;;25597925;23;20009;-59
2023/11/10 02:50:55;;;;;;;0.43;0.05;;;3.50;99.90;;;;;;25598475;23;20005;-59
2023/11/10 03:00:58;;;;;;;0.40;0.20;;;3.60;99.90;;;;;;25598186;23;20429;-59
2023/11/10 03:10:59;;;;;;;0.55;0.30;;;3.60;99.90;;;;;;25597410;23;20505;-57
2023/11/10 03:21:01;;;;;;;0.10;0.00;;;3.60;99.90;;;;;;25597159;23;20467;-59
2023/11/10 03:31:07;;;;;;;0.10;0.05;;;3.50;99.90;;;;;;25597049;23;20402;-58
2023/11/10 03:41:09;;;;;;;2.40;0.38;;;3.40;99.90;;;;;;25630722;23;20448;-59
2023/11/10 03:51:11;;;;;;;0.00;0.00;;;3.40;99.90;;;;;;25596067;23;20448;-58
2023/11/10 04:01:13;;;;;;;0.00;0.00;;;3.30;99.90;;;;;;25595603;23;20001;-58
2023/11/10 04:11:15;;;;;;;0.08;0.00;;;3.20;99.90;;;;;;25595330;23;20016;-50
2023/11/10 04:21:18;;;;;;;0.00;0.00;;;3.20;99.90;;;;;;25594757;23;20009;-51
2023/11/10 04:31:20;;;;;;;0.60;0.20;;;3.30;99.90;;;;;;25594047;23;20001;-58
2023/11/10 04:41:22;;;;;;;0.30;0.20;;;3.40;99.90;;;;;;25594166;23;20013;-50
2023/11/10 04:51:27;;;;;;;2.97;0.20;;;3.50;99.90;;;;;;25592901;23;20013;-58
2023/11/10 05:01:39;;;;;;;39.42;1.17;;;3.50;99.90;;;;;;25593173;23;20013;-58
2023/11/10 05:11:41;;;;;;;8.68;0.47;;;3.50;99.90;;;;;;25634538;23;20047;-58
2023/11/10 05:21:43;;;;;;;0.20;0.20;;;3.50;99.90;;;;;;25593374;23;20002;-58
2023/11/10 05:31:45;;;;;;;0.13;0.10;;;3.50;99.90;;;;;;25593269;23;20373;-58
2023/11/10 05:41:47;;;;;;;0.00;0.00;;;3.50;99.90;;;;;;25601405;23;20009;-50
2023/11/10 05:51:50;;;;;;;33.53;0.95;;;3.50;99.90;;;;;;25600750;23;20013;-58
2023/11/10 06:01:52;;;;;;;39.05;1.00;;;3.50;99.90;;;;;;25600435;23;20012;-58
2023/11/10 06:11:54;;;;;;;0.30;0.20;;;3.40;99.90;;;;;;25600187;23;20001;-58
2023/11/10 06:21:55;;;;;;;0.65;0.28;;;3.30;99.90;;;;;;25599557;23;20005;-58
2023/11/10 06:31:57;;;;;;;0.00;0.00;;;3.30;99.90;;;;;;25599002;23;20333;-58
2023/11/10 06:42:00;;;;;;;0.40;0.00;;;3.40;99.90;;;;;;25598775;23;20340;-51
2023/11/10 06:52:02;;;;;;;0.17;0.00;;;3.40;99.90;;;;;;25598153;23;20005;-52
2023/11/10 07:02:04;;;;;;;0.00;0.00;;;3.30;99.90;;;;;;25598258;23;20001;-58
2023/11/10 07:12:08;;;;;;;36.42;1.05;;;3.20;99.90;;;;;;25598676;23;20384;-58
2023/11/10 07:22:13;;;;;;;1.70;0.40;;;3.40;99.90;;;;;;25597317;23;20005;-59
2023/11/10 07:32:14;;;;;;;1.02;0.40;;;3.70;99.90;;;;;;25596809;23;20019;-59
2023/11/10 07:42:16;;;;;;;648.08;20.05;;;3.90;99.90;;;;;;25596412;23;20009;-52
2023/11/10 07:52:18;;;;;;;120.22;4.43;;;3.90;99.90;;;;;;25596128;23;20016;-58
2023/11/10 08:02:20;;;;;;;0.40;0.28;;;3.80;99.90;;;;;;25595278;23;20005;-58
2023/11/10 08:12:22;;;;;;;0.20;0.10;;;3.80;99.90;;;;;;25595289;23;20008;-58
2023/11/10 08:22:24;;;;;;;0.05;0.05;;;3.90;99.90;;;;;;25594831;23;20001;-58
2023/11/10 08:32:26;;;;;;;0.32;0.10;;;4.10;99.90;;;;;;25594808;23;20009;-58
2023/11/10 08:42:28;;;;;;;1.40;0.10;;;4.50;99.90;;;;;;25594299;23;20511;-59
2023/11/10 08:52:31;;;;;;;19.88;1.50;;;4.80;99.90;;;;;;25594197;23;20064;-59
2023/11/10 09:02:35;;;;;;;1.30;1.20;;;4.90;99.90;;;;;;25593424;23;20001;-59
2023/11/10 09:12:41;;;;;;;0.93;0.40;;;4.90;99.90;;;;;;25592286;23;20005;-59
2023/11/10 09:22:43;;;;;;;0.40;0.40;;;5.30;99.90;;;;;;25633169;23;20001;-59
2023/11/10 09:32:44;;;;;;;0.50;0.10;;;5.70;99.90;;;;;;25592648;23;20027;-59
2023/11/10 09:42:46;;;;;;;0.30;0.08;;;6.10;99.90;;;;;;25590793;23;20317;-59
2023/11/10 09:52:50;;;;;;;0.00;0.00;;;6.40;99.90;;;;;;25592087;23;20016;-59
2023/11/10 10:02:52;;;;;;;0.00;0.00;;;6.30;99.90;;;;;;25592459;23;20325;-59
2023/11/10 10:12:54;;;;;;;1.55;0.20;;;6.60;99.90;;;;;;25592498;23;20005;-59
2023/11/10 10:22:57;;;;;;;1.85;0.20;;;6.90;99.90;;;;;;25595102;23;20348;-60
2023/11/10 10:32:59;;;;;;;1.00;0.60;;;7.50;99.90;;;;;;25598678;23;20033;-59
2023/11/10 10:43:02;;;;;;;1.83;0.20;;;7.20;99.90;;;;;;25597257;23;20356;-59
2023/11/10 10:53:07;;;;;;;0.20;0.10;;;7.20;99.90;;;;;;25598347;23;20075;-58
2023/11/10 11:03:19;;;;;;;0.43;0.43;;;8.30;99.90;;;;;;25638874;23;20005;-51
2023/11/10 11:13:29;;;;;;;0.20;0.20;;;10.00;99.90;;;;;;25638630;23;20001;-58
2023/11/10 11:23:35;;;;;;;1.20;1.10;;;10.80;99.90;;;;;;25638438;23;20001;-56
2023/11/10 11:33:53;;;;;;;2.60;1.38;;;11.00;99.90;;;;;;25596600;23;20005;-53
2023/11/10 11:43:55;;;;;;;1.17;0.95;;;9.60;99.90;;;;;;25620530;23;20012;-52
2023/11/10 11:53:57;;;;;;;1.42;1.30;;;9.90;99.90;;;;;;25596139;23;20349;-59
2023/11/10 12:03:59;;;;;;;1.52;1.42;;;10.60;99.90;;;;;;25595607;23;20020;-60
2023/11/10 12:14:05;;;;;;;2.55;1.65;;;10.90;99.90;;;;;;25593641;23;20009;-60
2023/11/10 12:24:08;;;;;;;1.40;0.90;;;10.50;99.90;;;;;;25636799;23;20379;-59
2023/11/10 12:34:10;;;;;;;1.45;1.10;;;9.30;99.90;;;;;;25594691;23;20005;-59
2023/11/10 12:44:15;;;;;;;2.92;2.53;;;8.80;99.90;;;;;;25594059;23;20009;-52
2023/11/10 12:54:24;;;;;;;3.80;2.17;;;8.60;99.90;;;;;;25593616;23;20013;-59
2023/11/10 13:04:26;;;;;;;4.25;2.58;;;8.80;99.90;;;;;;25634694;23;20013;-59
2023/11/10 13:14:29;;;;;;;1.90;1.70;;;8.00;99.90;;;;;;25593443;23;20009;-59
2023/11/10 13:24:31;;;;;;;2.95;2.55;;;8.20;99.90;;;;;;25592747;23;20059;-52
2023/11/10 13:34:33;;;;;;;2.40;2.00;;;8.00;99.90;;;;;;25592731;23;20005;-60
2023/11/10 13:44:35;;;;;;;4.20;3.30;;;7.60;99.90;;;;;;25592684;23;20009;-60
2023/11/10 13:54:37;;;;;;;7.28;3.95;;;7.20;99.90;;;;;;25593774;23;20017;-51
2023/11/10 14:04:39;;;;;;;3.65;2.90;;;7.00;99.90;;;;;;25600142;23;20013;-52
2023/11/10 14:14:44;;;;;;;4.93;3.25;;;7.50;99.90;;;;;;25600290;23;20130;-60
2023/11/10 14:24:46;;;;;;;3.58;3.10;;;7.30;99.90;;;;;;25640982;23;20016;-58
2023/11/10 14:34:50;;;;;;;4.63;3.88;;;6.70;99.90;;;;;;25599126;23;20016;-51
2023/11/10 14:44:53;;;;;;;32.92;6.70;;;6.10;99.90;;;;;;25598666;23;20020;-60
2023/11/10 14:54:56;;;;;;;7.10;5.07;;;5.60;99.90;;;;;;25598496;23;20016;-51
2023/11/10 15:04:58;;;;;;;7.60;3.60;;;5.30;99.90;;;;;;25596906;23;20445;-47
2023/11/10 15:15:00;;;;;;;5.70;2.60;;;5.10;99.90;;;;;;25597786;23;20340;-59
2023/11/10 15:25:03;;;;;;;3.78;2.30;;;5.00;99.90;;;;;;25597498;23;20016;-59
2023/11/10 15:35:06;;;;;;;5.88;3.80;;;4.80;99.90;;;;;;25596756;23;20503;-59
2023/11/10 15:45:09;;;;;;;6.53;4.20;;;4.70;99.90;;;;;;25596606;23;20009;-59
2023/11/10 15:55:11;;;;;;;3.45;2.03;;;4.40;99.90;;;;;;25596576;23;20009;-50
2023/11/10 16:05:13;;;;;;;2.60;1.73;;;4.10;99.90;;;;;;25596130;23;20005;-59
2023/11/10 16:15:15;;;;;;;411.67;18.23;;;4.00;99.90;;;;;;25597145;23;20142;-47
2023/11/10 16:25:17;;;;;;;335.30;15.45;;;4.00;99.90;;;;;;25595243;23;20001;-51
2023/11/10 16:35:19;;;;;;;34.00;8.32;;;3.90;99.90;;;;;;25594545;23;20017;-59
2023/11/10 16:45:21;;;;;;;9.18;7.25;;;3.90;99.90;;;;;;25594276;23;20009;-51
2023/11/10 16:55:23;;;;;;;9.10;5.85;;;3.70;99.90;;;;;;25593778;23;20064;-51
2023/11/10 17:05:26;;;;;;;4.78;2.83;;;3.60;99.90;;;;;;25594494;23;20005;-50
2023/11/10 17:15:32;;;;;;;7.90;2.30;;;3.60;99.90;;;;;;25594190;23;20456;-59
2023/11/10 17:25:34;;;;;;;314.40;19.67;;;3.70;99.90;;;;;;25592902;23;20008;-58
2023/11/10 17:35:38;;;;;;;132.18;10.60;;;3.90;99.90;;;;;;25599725;23;20012;-59
2023/11/10 17:45:40;;;;;;;754.50;34.08;;;4.00;99.90;;;;;;25600126;23;20009;-59
2023/11/10 17:55:42;;;;;;;3.50;2.90;;;3.90;99.90;;;;;;25601002;23;20001;-59
2023/11/10 18:05:44;;;;;;;134.95;12.35;;;3.80;99.90;;;;;;25600054;23;20055;-59
2023/11/10 18:15:46;;;;;;;405.95;21.50;;;3.80;99.90;;;;;;25599913;23;20345;-59
2023/11/10 18:25:48;;;;;;;196.68;12.88;;;3.60;99.90;;;;;;25599588;23;19997;-59
2023/11/10 18:35:52;;;;;;;3.17;1.92;;;3.50;99.90;;;;;;25599123;23;19997;-59
2023/11/10 18:45:55;;;;;;;2.92;1.90;;;3.20;99.90;;;;;;25597972;23;20005;-58
2023/11/10 18:56:00;;;;;;;2.20;1.50;;;3.10;99.90;;;;;;25599848;23;19997;-59
2023/11/10 19:06:04;;;;;;;2.22;1.38;;;3.20;99.90;;;;;;25593694;23;20111;-58
2023/11/10 19:16:06;;;;;;;2.22;1.20;;;3.20;99.90;;;;;;25595603;23;20016;-59
2023/11/10 19:26:08;;;;;;;1.40;0.90;;;3.20;99.90;;;;;;25597607;23;20300;-55
2023/11/10 19:36:22;;;;;;;1.27;0.80;;;2.80;99.90;;;;;;25596863;23;20318;-59
2023/11/10 19:46:25;;;;;;;1.73;0.75;;;2.60;99.90;;;;;;25609805;23;20467;-49
2023/11/10 19:56:27;;;;;;;1.13;0.60;;;2.50;99.90;;;;;;25461290;23;20013;-59
2023/11/10 20:06:29;;;;;;;0.50;0.40;;;2.90;99.90;;;;;;25459464;23;20013;-59
2023/11/10 20:16:34;;;;;;;0.32;0.20;;;3.20;99.90;;;;;;25460229;23;20520;-59
2023/11/10 20:26:36;;;;;;;0.57;0.30;;;3.50;99.90;;;;;;25567476;23;20009;-49
2023/11/10 20:36:38;;;;;;;1.38;0.90;;;3.70;99.90;;;;;;25594682;23;20002;-51
2023/11/10 20:46:48;;;;;;;1.77;1.10;;;3.60;99.90;;;;;;25593918;23;20013;-59
2023/11/10 20:56:49;;;;;;;1.60;0.80;;;3.20;99.90;;;;;;25634757;23;20075;-59
2023/11/10 21:06:53;;;;;;;0.68;0.40;;;2.90;99.90;;;;;;25592786;23;20612;-59
2023/11/10 21:16:56;;;;;;;1.08;0.57;;;2.70;99.90;;;;;;25593357;23;20005;-59
2023/11/10 21:27:01;;;;;;;0.90;0.65;;;2.60;99.90;;;;;;25633595;23;20009;-59
2023/11/10 21:37:04;;;;;;;1.83;1.23;;;2.60;99.90;;;;;;25593208;23;20005;-54
2023/11/10 21:47:07;;;;;;;1.17;1.00;;;2.50;99.90;;;;;;25593022;23;20075;-53
2023/11/10 21:57:10;;;;;;;2.50;1.92;;;2.40;99.90;;;;;;25592492;23;20071;-52
2023/11/10 22:07:12;;;;;;;2.35;1.55;;;2.30;99.90;;;;;;25590786;23;20013;-51
2023/11/10 22:17:14;;;;;;;2.60;2.10;;;2.20;99.90;;;;;;25592927;23;20333;-59
2023/11/10 22:27:16;;;;;;;3.80;2.97;;;2.00;99.90;;;;;;25599385;23;20005;-59
2023/11/10 22:37:18;;;;;;;3.10;2.40;;;2.10;99.90;;;;;;25599252;23;20005;-50
2023/11/10 22:47:20;;;;;;;5.55;2.50;;;2.20;99.90;;;;;;25598816;23;20079;-52
2023/11/10 22:57:23;;;;;;;1.95;1.50;;;2.00;99.90;;;;;;25599433;23;20013;-59
2023/11/10 23:07:25;;;;;;;1.20;0.88;;;2.00;99.90;;;;;;25597591;23;20271;-54
2023/11/10 23:17:26;;;;;;;1.20;0.70;;;1.90;99.90;;;;;;25597683;23;20051;-50
2023/11/10 23:27:28;;;;;;;0.50;0.30;;;1.70;99.90;;;;;;25597294;23;20008;-49
2023/11/10 23:37:30;;;;;;;0.13;0.10;;;1.60;99.90;;;;;;25595318;23;20063;-59
2023/11/10 23:47:32;;;;;;;0.25;0.10;;;1.90;99.90;;;;;;25596236;23;20380;-50
2023/11/10 23:57:34;;;;;;;0.40;0.10;;;2.10;99.90;;;;;;25595701;23;20001;-53
